Time;durP1;ratioP1;P1;durP2;ratioP2;P2;SDS_P1;SDS_P2;PMS_P1;PMS_P2;Temp;Humidity;BMP_temperature;BMP_pressure;BME280_temperature;BME280_humidity;BME280_pressure;Samples;Min_cycle;Max_cycle;Signal;HPM_P1;HPM_P2
2022/08/11 00:00:35;;;;;;;7.00;4.20;;;;;;;;;;5017877;28;20029;-87
2022/08/11 00:03:04;;;;;;;6.45;4.20;;;;;;;;;;5017293;28;20036;-87
2022/08/11 00:05:30;;;;;;;5.85;3.63;;;;;;;;;;5018359;28;20026;-87
2022/08/11 00:07:57;;;;;;;7.25;3.95;;;;;;;;;;5017839;28;20025;-86
2022/08/11 00:10:27;;;;;;;6.55;4.13;;;;;;;;;;5025813;28;20020;-87
2022/08/11 00:13:01;;;;;;;6.05;4.38;;;;;;;;;;5037410;28;20021;-87
2022/08/11 00:15:36;;;;;;;6.68;4.57;;;;;;;;;;5055827;28;20024;-87
2022/08/11 00:18:02;;;;;;;6.72;3.75;;;;;;;;;;5037303;28;20391;-87
2022/08/11 00:20:31;;;;;;;6.63;4.18;;;;;;;;;;5031644;28;20029;-88
2022/08/11 00:23:01;;;;;;;6.22;4.38;;;;;;;;;;5033582;28;20021;-87
2022/08/11 00:25:28;;;;;;;6.65;4.10;;;;;;;;;;5042062;28;20041;-88
2022/08/11 00:27:54;;;;;;;5.80;4.10;;;;;;;;;;5038021;28;20021;-88
2022/08/11 00:30:20;;;;;;;7.15;4.20;;;;;;;;;;5036100;28;20033;-88
2022/08/11 00:32:54;;;;;;;7.00;4.57;;;;;;;;;;5053724;28;20021;-88
2022/08/11 00:35:22;;;;;;;5.90;4.10;;;;;;;;;;5036102;28;20025;-88
2022/08/11 00:37:49;;;;;;;6.97;3.92;;;;;;;;;;5036143;28;20029;-88
2022/08/11 00:40:22;;;;;;;5.50;3.75;;;;;;;;;;5053698;28;20100;-88
2022/08/11 00:43:07;;;;;;;6.60;3.97;;;;;;;;;;5035855;28;20059;-88
2022/08/11 00:45:40;;;;;;;6.18;4.20;;;;;;;;;;5053371;28;20530;-88
2022/08/11 00:48:21;;;;;;;5.97;3.83;;;;;;;;;;5036045;28;20028;-88
2022/08/11 00:51:09;;;;;;;6.75;4.22;;;;;;;;;;5035944;28;20063;-88
2022/08/11 00:53:38;;;;;;;7.15;3.90;;;;;;;;;;5053269;28;20455;-88
2022/08/11 00:56:17;;;;;;;6.78;4.43;;;;;;;;;;5035413;28;20025;-88
2022/08/11 00:59:02;;;;;;;5.88;4.00;;;;;;;;;;5052929;28;20652;-88
2022/08/11 01:01:46;;;;;;;6.60;3.95;;;;;;;;;;5035646;28;20039;-88
2022/08/11 01:04:31;;;;;;;6.65;4.07;;;;;;;;;;5035313;28;20078;-88
2022/08/11 01:07:00;;;;;;;6.35;4.07;;;;;;;;;;5035698;28;20035;-88
2022/08/11 01:09:39;;;;;;;6.22;4.43;;;;;;;;;;5035182;28;20025;-89
2022/08/11 01:12:19;;;;;;;6.47;4.25;;;;;;;;;;5017774;28;20063;-88
2022/08/11 01:15:04;;;;;;;6.82;4.45;;;;;;;;;;5034314;28;20108;-88
2022/08/11 01:17:49;;;;;;;6.30;4.22;;;;;;;;;;5032396;28;20028;-88
2022/08/11 01:20:30;;;;;;;6.00;4.05;;;;;;;;;;5031721;28;20026;-88
2022/08/11 01:23:05;;;;;;;6.25;4.32;;;;;;;;;;5033188;28;20041;-88
2022/08/11 01:25:37;;;;;;;6.50;3.90;;;;;;;;;;5034495;28;20017;-88
2022/08/11 01:28:22;;;;;;;5.70;3.55;;;;;;;;;;5034143;28;20021;-88
2022/08/11 01:31:07;;;;;;;5.68;4.47;;;;;;;;;;5034492;28;20127;-87
2022/08/11 01:34:01;;;;;;;9.25;4.65;;;;;;;;;;5035054;28;20021;-88
2022/08/11 01:36:40;;;;;;;6.47;4.10;;;;;;;;;;5047780;28;20426;-88
2022/08/11 01:39:32;;;;;;;6.07;4.28;;;;;;;;;;5031577;28;20550;-88
2022/08/11 01:44:46;;;;;;;7.15;4.90;;;;;;;;;;5032923;28;20071;-88
2022/08/11 01:50:24;;;;;;;6.43;4.85;;;;;;;;;;5032728;28;20614;-88
2022/08/11 01:53:02;;;;;;;7.10;5.25;;;;;;;;;;5029233;28;20028;-88
2022/08/11 01:55:33;;;;;;;7.75;5.22;;;;;;;;;;5039719;28;20072;-88
2022/08/11 01:58:15;;;;;;;8.07;5.05;;;;;;;;;;5020139;28;20036;-88
2022/08/11 02:00:52;;;;;;;7.95;5.18;;;;;;;;;;5034076;28;20037;-88
2022/08/11 02:03:37;;;;;;;6.53;4.95;;;;;;;;;;5034422;28;20044;-88
2022/08/11 02:09:13;;;;;;;6.65;4.97;;;;;;;;;;5051435;28;20119;-88
2022/08/11 02:11:39;;;;;;;8.77;5.72;;;;;;;;;;5034058;28;20021;-88
2022/08/11 02:14:23;;;;;;;8.38;5.30;;;;;;;;;;5051714;28;20057;-88
2022/08/11 02:16:50;;;;;;;7.63;5.90;;;;;;;;;;5034434;28;20410;-88
2022/08/11 02:25:10;;;;;;;7.38;5.45;;;;;;;;;;5051818;28;20164;-88
2022/08/11 02:27:44;;;;;;;8.13;5.50;;;;;;;;;;5052819;28;20120;-88
2022/08/11 02:30:13;;;;;;;7.90;5.40;;;;;;;;;;5033650;28;20514;-88
2022/08/11 02:35:50;;;;;;;7.18;5.30;;;;;;;;;;5051812;28;20032;-87
2022/08/11 02:38:16;;;;;;;6.97;5.43;;;;;;;;;;5051968;28;20029;-88
2022/08/11 02:40:53;;;;;;;7.85;5.72;;;;;;;;;;5036515;28;20079;-87
2022/08/11 02:43:37;;;;;;;6.75;5.32;;;;;;;;;;5037330;28;20491;-88
2022/08/11 02:46:03;;;;;;;6.60;5.47;;;;;;;;;;5055489;28;20050;-88
2022/08/11 02:51:25;;;;;;;8.15;5.60;;;;;;;;;;5055250;28;20044;-88
2022/08/11 02:54:12;;;;;;;8.45;5.72;;;;;;;;;;5054718;28;20052;-88
2022/08/11 02:56:43;;;;;;;8.60;5.78;;;;;;;;;;5042608;28;20030;-88
2022/08/11 03:02:45;;;;;;;6.43;5.25;;;;;;;;;;4990347;28;20045;-88
2022/08/11 03:05:16;;;;;;;7.20;5.70;;;;;;;;;;4943848;29;20043;-88
2022/08/11 03:08:01;;;;;;;8.07;5.18;;;;;;;;;;4954884;29;20027;-88
2022/08/11 03:16:43;;;;;;;7.88;5.53;;;;;;;;;;4954767;29;20038;-87
2022/08/11 03:16:47;;;;;;;9.77;6.28;;;;;;;;;;4973855;28;20053;-88
2022/08/11 03:19:30;;;;;;;6.97;5.03;;;;;;;;;;4957530;28;20030;-88
2022/08/11 03:22:22;;;;;;;7.80;5.57;;;;;;;;;;4974415;28;20820;-88
2022/08/11 03:24:48;;;;;;;8.65;6.22;;;;;;;;;;4954743;28;20031;-88
2022/08/11 03:27:37;;;;;;;8.70;5.22;;;;;;;;;;4945184;28;20102;-88
2022/08/11 03:30:10;;;;;;;7.75;5.40;;;;;;;;;;4966953;28;20562;-88
2022/08/11 03:34:00;;;;;;;8.73;5.85;;;;;;;;;;4992668;28;20038;-88
2022/08/11 03:35:39;;;;;;;7.55;5.20;;;;;;;;;;4993375;28;20053;-88
2022/08/11 03:38:08;;;;;;;8.07;5.57;;;;;;;;;;5015641;28;20033;-88
2022/08/11 03:43:52;;;;;;;8.65;5.65;;;;;;;;;;5034445;28;20096;-88
2022/08/11 03:46:38;;;;;;;10.52;5.68;;;;;;;;;;5016579;28;20466;-88
2022/08/11 03:49:14;;;;;;;7.30;5.97;;;;;;;;;;5016300;28;20021;-88
2022/08/11 03:51:59;;;;;;;8.00;5.75;;;;;;;;;;5030825;28;20123;-89
2022/08/11 03:54:47;;;;;;;8.73;6.40;;;;;;;;;;5036110;28;20045;-88
2022/08/11 03:57:16;;;;;;;8.50;6.05;;;;;;;;;;5036130;28;20018;-87
2022/08/11 04:00:09;;;;;;;8.23;5.93;;;;;;;;;;5035965;28;20045;-88
2022/08/11 04:03:06;;;;;;;10.80;5.80;;;;;;;;;;5054489;28;20109;-88
2022/08/11 04:05:32;;;;;;;7.03;5.60;;;;;;;;;;4967978;28;20041;-88
2022/08/11 04:08:10;;;;;;;8.05;5.90;;;;;;;;;;5053508;28;20033;-88
2022/08/11 04:10:55;;;;;;;7.93;6.18;;;;;;;;;;5054124;28;20053;-87
2022/08/11 04:13:33;;;;;;;7.68;6.00;;;;;;;;;;5035808;28;20112;-87
2022/08/11 04:16:02;;;;;;;9.05;6.50;;;;;;;;;;5035939;28;20017;-88
2022/08/11 04:18:28;;;;;;;8.90;6.53;;;;;;;;;;5037981;28;20024;-88
2022/08/11 04:21:13;;;;;;;7.18;5.88;;;;;;;;;;5040082;28;20071;-87
2022/08/11 04:24:03;;;;;;;8.45;6.32;;;;;;;;;;5038615;28;20017;-88
2022/08/11 04:26:51;;;;;;;7.85;6.05;;;;;;;;;;5053859;28;20025;-87
2022/08/11 04:29:42;;;;;;;10.10;5.97;;;;;;;;;;5034911;28;20513;-88
2022/08/11 04:32:27;;;;;;;8.27;6.25;;;;;;;;;;5015808;28;20029;-88
2022/08/11 04:34:59;;;;;;;7.35;5.88;;;;;;;;;;5034006;28;20383;-88
2022/08/11 04:37:48;;;;;;;8.15;5.80;;;;;;;;;;5034713;28;20108;-88
2022/08/11 04:40:43;;;;;;;7.07;5.82;;;;;;;;;;5023878;28;20052;-88
2022/08/11 04:43:21;;;;;;;7.53;5.40;;;;;;;;;;5016499;28;20113;-88
2022/08/11 04:45:59;;;;;;;6.93;5.43;;;;;;;;;;5035895;28;20025;-87
2022/08/11 05:03:08;;;;;;;7.60;5.28;;;;;;;;;;5070689;28;20297;-88
2022/08/11 05:05:37;;;;;;;7.75;5.63;;;;;;;;;;5058852;28;20033;-88
2022/08/11 05:08:03;;;;;;;11.10;5.68;;;;;;;;;;5035782;28;20029;-88
2022/08/11 05:10:32;;;;;;;9.85;6.35;;;;;;;;;;5052775;28;20392;-88
2022/08/11 05:35:48;;;;;;;7.25;5.45;;;;;;;;;;5032266;28;20499;-88
2022/08/11 05:58:04;;;;;;;9.07;5.05;;;;;;;;;;5032226;28;20048;-86
2022/08/11 06:00:32;;;;;;;9.30;4.93;;;;;;;;;;5044856;28;20035;-86
2022/08/11 06:03:02;;;;;;;7.63;4.93;;;;;;;;;;5051888;28;20021;-86
2022/08/11 06:05:35;;;;;;;6.75;5.07;;;;;;;;;;5037750;28;20025;-86
2022/08/11 06:08:02;;;;;;;6.95;4.50;;;;;;;;;;5035519;28;20491;-88
2022/08/11 06:10:32;;;;;;;6.85;4.60;;;;;;;;;;5017713;28;20595;-87
2022/08/11 06:12:59;;;;;;;6.18;4.43;;;;;;;;;;5031008;28;20068;-87
2022/08/11 06:15:29;;;;;;;6.28;4.30;;;;;;;;;;5046970;28;20021;-87
2022/08/11 06:17:56;;;;;;;6.40;4.53;;;;;;;;;;5037422;28;20025;-87
2022/08/11 06:20:24;;;;;;;6.15;4.30;;;;;;;;;;5055947;28;20150;-87
2022/08/11 06:23:02;;;;;;;7.63;4.55;;;;;;;;;;5037379;28;20029;-87
2022/08/11 06:25:35;;;;;;;6.28;4.20;;;;;;;;;;5055660;28;20078;-89
2022/08/11 06:28:01;;;;;;;;;;;;;;;;;;5038055;28;20067;-86
2022/08/11 06:30:41;;;;;;;9.07;4.57;;;;;;;;;;5038059;28;19963;-87
2022/08/11 06:33:12;;;;;;;6.88;4.03;;;;;;;;;;5038676;28;20024;-88
2022/08/11 06:36:02;;;;;;;6.65;3.92;;;;;;;;;;5038021;28;20032;-87
2022/08/11 06:38:37;;;;;;;6.00;3.70;;;;;;;;;;5037683;28;20024;-87
2022/08/11 06:44:15;;;;;;;4.80;3.30;;;;;;;;;;5056030;28;20106;-87
2022/08/11 06:46:53;;;;;;;7.68;4.15;;;;;;;;;;5036053;28;20041;-87
2022/08/11 06:52:12;;;;;;;5.97;3.70;;;;;;;;;;5014897;28;20025;-86
2022/08/11 06:54:40;;;;;;;5.35;3.58;;;;;;;;;;5057322;28;20103;-87
2022/08/11 07:02:47;;;;;;;6.30;3.42;;;;;;;;;;5080663;28;20036;-88
2022/08/11 07:05:16;;;;;;;12.40;4.43;;;;;;;;;;5062940;28;20047;-88
2022/08/11 07:16:41;;;;;;;6.07;3.45;;;;;;;;;;5056447;28;20039;-86
2022/08/11 07:30:17;;;;;;;8.85;3.38;;;;;;;;;;5036830;28;20072;-87
2022/08/11 07:32:52;;;;;;;5.43;2.67;;;;;;;;;;5038570;28;20025;-86
2022/08/11 07:35:21;;;;;;;6.28;3.20;;;;;;;;;;5038104;28;20391;-87
2022/08/11 07:37:50;;;;;;;6.00;3.17;;;;;;;;;;5057199;28;20053;-87
2022/08/11 07:40:21;;;;;;;6.45;3.10;;;;;;;;;;5057673;28;20056;-87
2022/08/11 07:42:48;;;;;;;7.82;3.25;;;;;;;;;;5058750;28;20017;-87
2022/08/11 07:53:30;;;;;;;4.90;2.97;;;;;;;;;;5077675;28;20059;-88
2022/08/11 07:55:57;;;;;;;5.95;3.35;;;;;;;;;;5074895;28;20025;-87
2022/08/11 08:17:55;;;;;;;5.47;3.00;;;;;;;;;;5072697;28;20059;-88
2022/08/11 08:20:23;;;;;;;6.00;2.67;;;;;;;;;;5040070;28;20063;-87
2022/08/11 08:22:55;;;;;;;5.63;3.13;;;;;;;;;;5037241;28;20329;-88
2022/08/11 08:25:23;;;;;;;4.25;2.50;;;;;;;;;;5058147;28;20025;-87
2022/08/11 08:27:50;;;;;;;5.03;2.90;;;;;;;;;;5057715;28;20025;-88
2022/08/11 08:33:01;;;;;;;4.50;2.47;;;;;;;;;;5059658;28;20043;-87
2022/08/11 08:35:29;;;;;;;5.55;2.80;;;;;;;;;;5061487;28;20017;-87
2022/08/11 08:37:55;;;;;;;6.38;2.58;;;;;;;;;;5054796;28;20025;-87
2022/08/11 08:40:21;;;;;;;5.63;2.50;;;;;;;;;;5037943;28;20502;-90
2022/08/11 08:42:59;;;;;;;4.78;2.28;;;;;;;;;;5054457;28;20062;-86
2022/08/11 08:45:26;;;;;;;4.70;2.50;;;;;;;;;;5036976;28;20072;-88
2022/08/11 08:48:00;;;;;;;4.55;2.38;;;;;;;;;;5038321;28;20032;-87
2022/08/11 08:51:33;;;;;;;4.60;2.42;;;;;;;;;;5053571;28;20021;-88
2022/08/11 08:53:15;;;;;;;4.28;2.17;;;;;;;;;;5054277;28;20449;-87
2022/08/11 08:55:42;;;;;;;4.65;2.60;;;;;;;;;;5039681;28;20032;-87
2022/08/11 08:58:08;;;;;;;5.90;2.63;;;;;;;;;;5055135;28;20108;-87
2022/08/11 09:00:39;;;;;;;4.78;2.42;;;;;;;;;;5036022;28;20082;-90
2022/08/11 09:03:05;;;;;;;4.25;2.60;;;;;;;;;;5051256;28;20033;-89
2022/08/11 09:05:31;;;;;;;4.63;2.28;;;;;;;;;;5052726;28;20056;-87
2022/08/11 09:07:57;;;;;;;5.95;2.78;;;;;;;;;;5035927;28;20029;-87
2022/08/11 09:10:24;;;;;;;10.90;3.40;;;;;;;;;;5036496;28;20024;-88
2022/08/11 09:12:50;;;;;;;5.20;2.30;;;;;;;;;;5034881;28;20051;-88
2022/08/11 09:15:19;;;;;;;3.60;1.92;;;;;;;;;;5035926;28;20044;-86
2022/08/11 09:17:49;;;;;;;4.47;2.28;;;;;;;;;;5035649;28;20021;-87
2022/08/11 09:20:15;;;;;;;4.68;2.20;;;;;;;;;;5036824;28;20441;-87
2022/08/11 09:28:15;;;;;;;4.40;2.25;;;;;;;;;;5054355;28;20067;-87
2022/08/11 09:30:42;;;;;;;4.35;2.35;;;;;;;;;;5035523;28;20495;-87
2022/08/11 09:33:10;;;;;;;7.35;2.10;;;;;;;;;;5054982;28;20021;-87
2022/08/11 09:35:37;;;;;;;4.63;2.05;;;;;;;;;;5036641;28;20048;-88
2022/08/11 09:40:50;;;;;;;5.18;2.15;;;;;;;;;;5054184;28;20110;-87
2022/08/11 09:46:03;;;;;;;6.80;2.28;;;;;;;;;;5053116;28;20456;-87
2022/08/11 09:48:32;;;;;;;4.13;2.13;;;;;;;;;;5035197;28;20112;-86
2022/08/11 09:50:59;;;;;;;3.88;2.17;;;;;;;;;;5041655;28;20074;-86
2022/08/11 09:53:26;;;;;;;4.20;2.00;;;;;;;;;;5059191;28;20017;-88
2022/08/11 09:55:53;;;;;;;4.60;2.25;;;;;;;;;;5035120;28;20402;-87
2022/08/11 09:58:21;;;;;;;5.13;1.90;;;;;;;;;;5033191;28;20030;-88
2022/08/11 10:00:50;;;;;;;5.78;2.20;;;;;;;;;;5037742;28;20072;-88
2022/08/11 10:03:18;;;;;;;4.45;2.40;;;;;;;;;;5038863;28;20037;-88
2022/08/11 10:08:32;;;;;;;4.38;2.47;;;;;;;;;;5047537;28;20441;-88
2022/08/11 10:10:58;;;;;;;4.50;2.13;;;;;;;;;;5040318;28;20110;-87
2022/08/11 10:13:32;;;;;;;5.65;2.50;;;;;;;;;;5059709;28;20021;-87
2022/08/11 10:16:00;;;;;;;4.65;2.03;;;;;;;;;;5042192;28;20022;-89
2022/08/11 10:18:41;;;;;;;4.40;2.00;;;;;;;;;;5040837;28;20021;-88
2022/08/11 10:21:37;;;;;;;4.07;2.05;;;;;;;;;;5057896;28;20056;-88
2022/08/11 10:34:47;;;;;;;4.63;2.28;;;;;;;;;;4970896;28;20038;-87
2022/08/11 10:37:14;;;;;;;3.88;2.00;;;;;;;;;;4979044;28;20051;-86
2022/08/11 10:39:41;;;;;;;5.72;2.22;;;;;;;;;;4960976;28;20050;-87
2022/08/11 10:44:54;;;;;;;5.78;2.30;;;;;;;;;;4977236;28;20097;-88
2022/08/11 10:47:35;;;;;;;4.63;2.05;;;;;;;;;;4977437;28;20049;-87
2022/08/11 11:01:08;;;;;;;4.88;2.45;;;;;;;;;;5007728;28;20037;-87
2022/08/11 11:03:35;;;;;;;3.90;2.25;;;;;;;;;;5027411;28;20060;-88
2022/08/11 11:06:10;;;;;;;4.63;1.92;;;;;;;;;;5015264;28;20033;-88
2022/08/11 11:08:51;;;;;;;5.10;2.10;;;;;;;;;;5014220;28;20488;-88
2022/08/11 11:11:19;;;;;;;4.68;2.25;;;;;;;;;;5014368;28;20025;-87
2022/08/11 11:19:19;;;;;;;5.30;2.20;;;;;;;;;;5032290;28;20049;-87
2022/08/11 11:21:47;;;;;;;4.70;1.90;;;;;;;;;;5017344;28;20026;-88
2022/08/11 11:24:40;;;;;;;4.25;1.90;;;;;;;;;;5035501;28;20032;-87
2022/08/11 11:27:21;;;;;;;5.43;1.95;;;;;;;;;;5037254;28;20487;-87
2022/08/11 11:29:57;;;;;;;4.43;1.77;;;;;;;;;;5059924;28;20017;-87
2022/08/11 11:32:35;;;;;;;4.20;1.98;;;;;;;;;;5050967;28;20022;-87
2022/08/11 11:35:10;;;;;;;4.25;1.95;;;;;;;;;;5033824;28;20481;-86
2022/08/11 11:37:37;;;;;;;4.50;2.10;;;;;;;;;;5033440;28;20021;-86
2022/08/11 11:40:09;;;;;;;5.25;1.80;;;;;;;;;;5033100;28;20069;-87
2022/08/11 11:42:35;;;;;;;4.50;1.80;;;;;;;;;;5032952;28;20623;-87
2022/08/11 11:45:02;;;;;;;4.15;1.92;;;;;;;;;;5032517;28;20063;-86
2022/08/11 11:47:29;;;;;;;3.92;1.80;;;;;;;;;;5033956;28;20052;-88
2022/08/11 11:49:56;;;;;;;4.18;2.13;;;;;;;;;;5031520;28;20034;-88
2022/08/11 11:52:23;;;;;;;5.00;1.92;;;;;;;;;;5032772;28;20029;-87
2022/08/11 11:54:52;;;;;;;4.25;1.90;;;;;;;;;;5032937;28;20049;-87
2022/08/11 12:02:51;;;;;;;3.83;1.58;;;;;;;;;;5033063;28;20060;-88
2022/08/11 12:05:18;;;;;;;4.13;1.80;;;;;;;;;;5032898;28;20395;-89
2022/08/11 12:10:29;;;;;;;3.15;1.63;;;;;;;;;;5033862;28;20037;-88
2022/08/11 12:15:40;;;;;;;4.82;1.80;;;;;;;;;;5033684;28;20097;-87
2022/08/11 12:18:06;;;;;;;3.60;1.67;;;;;;;;;;5032362;28;20049;-89
2022/08/11 12:20:32;;;;;;;3.67;1.60;;;;;;;;;;5031882;28;20060;-88
2022/08/11 12:28:29;;;;;;;4.55;1.95;;;;;;;;;;5033631;28;20041;-89
2022/08/11 12:30:56;;;;;;;5.43;1.83;;;;;;;;;;5032934;28;20018;-88
2022/08/11 12:33:22;;;;;;;5.40;1.73;;;;;;;;;;5032548;28;20483;-88
2022/08/11 12:35:55;;;;;;;3.80;1.80;;;;;;;;;;5032605;28;20033;-88
2022/08/11 12:38:22;;;;;;;4.43;1.83;;;;;;;;;;5033426;28;20476;-88
2022/08/11 12:46:23;;;;;;;4.55;2.00;;;;;;;;;;5033175;28;20095;-88
2022/08/11 12:51:57;;;;;;;3.65;1.80;;;;;;;;;;5032419;28;20549;-88
2022/08/11 12:54:26;;;;;;;4.30;2.35;;;;;;;;;;5032224;28;20025;-88
2022/08/11 13:05:16;;;;;;;4.15;1.80;;;;;;;;;;5032421;28;20028;-88
2022/08/11 13:07:44;;;;;;;4.35;2.17;;;;;;;;;;5032294;28;20158;-87
2022/08/11 13:10:12;;;;;;;5.65;2.28;;;;;;;;;;5031151;28;20036;-88
2022/08/11 13:12:47;;;;;;;5.13;2.08;;;;;;;;;;5031607;28;20152;-88
2022/08/11 13:15:17;;;;;;;4.20;2.00;;;;;;;;;;5031186;28;20021;-87
2022/08/11 13:17:47;;;;;;;4.70;2.13;;;;;;;;;;5031777;28;20399;-88
2022/08/11 13:20:13;;;;;;;3.78;2.10;;;;;;;;;;5031033;28;20395;-87
2022/08/11 13:22:44;;;;;;;3.97;2.03;;;;;;;;;;5031534;28;20021;-87
2022/08/11 13:25:12;;;;;;;4.90;1.98;;;;;;;;;;5030062;28;20025;-88
2022/08/11 13:27:38;;;;;;;5.15;2.08;;;;;;;;;;5031508;28;20025;-87
2022/08/11 13:32:51;;;;;;;4.97;1.85;;;;;;;;;;5032400;28;20079;-87
2022/08/11 13:35:18;;;;;;;5.68;2.22;;;;;;;;;;5031936;28;20052;-87
2022/08/11 13:37:44;;;;;;;4.47;1.77;;;;;;;;;;5026596;28;20447;-88
2022/08/11 13:40:11;;;;;;;4.10;2.08;;;;;;;;;;5044652;28;20045;-87
2022/08/11 13:42:38;;;;;;;4.13;2.08;;;;;;;;;;5031501;28;20063;-88
2022/08/11 13:45:06;;;;;;;4.60;2.30;;;;;;;;;;5033896;28;20081;-88
2022/08/11 13:47:32;;;;;;;4.68;2.15;;;;;;;;;;5050545;28;20030;-87
2022/08/11 13:49:58;;;;;;;4.03;2.25;;;;;;;;;;5035778;28;20029;-87
2022/08/11 13:52:26;;;;;;;4.28;2.20;;;;;;;;;;5034759;28;20056;-88
2022/08/11 13:54:53;;;;;;;5.45;2.42;;;;;;;;;;5047387;28;20067;-87
2022/08/11 13:57:20;;;;;;;4.05;2.08;;;;;;;;;;5052431;28;20032;-87
2022/08/11 13:59:47;;;;;;;4.45;2.20;;;;;;;;;;5034727;28;20021;-87
2022/08/11 14:02:15;;;;;;;4.10;2.20;;;;;;;;;;5048663;28;20033;-87
2022/08/11 14:04:54;;;;;;;5.35;2.40;;;;;;;;;;5052240;28;20086;-87
2022/08/11 14:07:22;;;;;;;4.15;2.10;;;;;;;;;;5031595;28;20105;-88
2022/08/11 14:09:52;;;;;;;5.07;2.70;;;;;;;;;;5015942;28;20404;-87
2022/08/11 14:15:10;;;;;;;4.43;2.40;;;;;;;;;;5032714;28;20039;-87
2022/08/11 14:17:38;;;;;;;4.28;2.33;;;;;;;;;;5028388;28;20029;-88
2022/08/11 14:20:06;;;;;;;4.57;2.10;;;;;;;;;;5034803;28;20094;-87
2022/08/11 14:22:32;;;;;;;4.10;1.90;;;;;;;;;;5034426;28;20071;-88
2022/08/11 14:24:58;;;;;;;3.97;1.85;;;;;;;;;;5034462;28;20028;-87
2022/08/11 14:27:29;;;;;;;3.92;2.03;;;;;;;;;;5034653;28;20551;-86
2022/08/11 14:29:56;;;;;;;4.60;2.40;;;;;;;;;;5034599;28;20029;-85
2022/08/11 14:32:22;;;;;;;4.85;2.35;;;;;;;;;;5051017;28;20036;-85
2022/08/11 14:34:48;;;;;;;4.53;2.10;;;;;;;;;;5034209;28;20025;-87
2022/08/11 14:37:25;;;;;;;3.70;1.95;;;;;;;;;;5037045;28;20021;-85
2022/08/11 14:39:53;;;;;;;4.68;2.05;;;;;;;;;;5056456;28;20033;-86
2022/08/11 14:47:52;;;;;;;3.92;2.03;;;;;;;;;;5069850;28;20089;-85
2022/08/11 14:50:23;;;;;;;6.15;2.50;;;;;;;;;;5038763;28;20037;-88
2022/08/11 14:53:09;;;;;;;4.20;2.10;;;;;;;;;;5037547;28;20025;-88
2022/08/11 14:58:24;;;;;;;4.80;2.20;;;;;;;;;;5056697;28;20135;-87
2022/08/11 15:00:52;;;;;;;5.00;2.40;;;;;;;;;;5037720;28;20035;-87
2022/08/11 15:03:18;;;;;;;5.00;2.03;;;;;;;;;;5036992;28;20120;-88
2022/08/11 15:05:47;;;;;;;4.05;1.95;;;;;;;;;;5055252;28;20031;-88
2022/08/11 15:08:14;;;;;;;5.22;2.17;;;;;;;;;;5055007;28;20092;-88
2022/08/11 15:10:40;;;;;;;5.65;2.20;;;;;;;;;;5055991;28;20033;-86
2022/08/11 15:13:06;;;;;;;5.07;2.30;;;;;;;;;;5038200;28;20059;-86
2022/08/11 15:18:19;;;;;;;4.82;2.35;;;;;;;;;;5055931;28;20395;-87
2022/08/11 15:37:44;;;;;;;5.55;2.00;;;;;;;;;;5051657;28;20159;-87
2022/08/11 15:45:51;;;;;;;5.65;2.22;;;;;;;;;;5035799;28;20790;-87
2022/08/11 15:48:25;;;;;;;5.82;1.98;;;;;;;;;;5034885;28;20606;-86
2022/08/11 15:50:52;;;;;;;4.10;1.98;;;;;;;;;;5016858;28;20038;-85
2022/08/11 15:53:39;;;;;;;4.57;1.98;;;;;;;;;;5035307;28;20141;-86
2022/08/11 15:56:06;;;;;;;5.20;1.70;;;;;;;;;;5037020;28;20150;-86
2022/08/11 16:04:10;;;;;;;4.10;1.90;;;;;;;;;;5055030;28;20079;-86
2022/08/11 16:06:39;;;;;;;6.22;1.80;;;;;;;;;;5036494;28;20029;-87
2022/08/11 16:09:07;;;;;;;6.00;2.20;;;;;;;;;;5035333;28;20021;-87
2022/08/11 16:11:34;;;;;;;4.70;2.22;;;;;;;;;;5055674;28;20033;-87
2022/08/11 16:16:49;;;;;;;4.90;2.20;;;;;;;;;;5053250;28;20036;-87
2022/08/11 16:19:16;;;;;;;4.75;2.22;;;;;;;;;;5053074;28;20052;-87
2022/08/11 16:21:43;;;;;;;4.15;2.13;;;;;;;;;;5035052;28;20123;-87
2022/08/11 16:24:11;;;;;;;5.10;2.15;;;;;;;;;;5035291;28;20033;-87
2022/08/11 16:26:40;;;;;;;4.88;2.13;;;;;;;;;;5053598;28;20024;-88
2022/08/11 16:29:07;;;;;;;6.32;2.20;;;;;;;;;;5052671;28;20021;-89
2022/08/11 16:31:34;;;;;;;4.40;1.77;;;;;;;;;;5032249;28;20029;-88
2022/08/11 16:34:02;;;;;;;5.45;2.10;;;;;;;;;;5034744;28;20028;-88
2022/08/11 16:39:17;;;;;;;4.72;1.90;;;;;;;;;;5032980;28;20044;-88
2022/08/11 16:47:16;;;;;;;5.10;1.98;;;;;;;;;;5062032;28;20060;-88
2022/08/11 16:49:45;;;;;;;4.47;1.80;;;;;;;;;;5052806;28;20249;-88
2022/08/11 16:52:12;;;;;;;3.83;1.65;;;;;;;;;;5054959;28;20059;-87
2022/08/11 16:54:39;;;;;;;5.38;1.80;;;;;;;;;;5052651;28;20419;-87
2022/08/11 17:00:11;;;;;;;4.20;1.67;;;;;;;;;;5033132;28;20044;-87
2022/08/11 17:13:45;;;;;;;4.20;1.70;;;;;;;;;;5036529;28;20033;-87
2022/08/11 17:16:13;;;;;;;4.32;1.70;;;;;;;;;;5055174;28;20044;-87
2022/08/11 17:18:44;;;;;;;4.15;1.50;;;;;;;;;;5055533;28;20033;-88
2022/08/11 17:21:19;;;;;;;5.07;1.67;;;;;;;;;;5055362;28;20093;-87
2022/08/11 17:23:51;;;;;;;4.15;1.85;;;;;;;;;;5055593;28;20025;-87
2022/08/11 17:26:56;;;;;;;4.50;1.83;;;;;;;;;;5055386;28;20014;-89
2022/08/11 17:29:31;;;;;;;3.92;1.98;;;;;;;;;;5051660;28;20068;-88
2022/08/11 17:37:31;;;;;;;4.43;1.75;;;;;;;;;;5032468;28;20042;-88
2022/08/11 17:39:59;;;;;;;3.72;1.80;;;;;;;;;;5032068;28;20057;-88
2022/08/11 17:50:43;;;;;;;4.53;2.00;;;;;;;;;;5055561;28;20051;-88
2022/08/11 18:01:26;;;;;;;8.85;2.33;;;;;;;;;;5076850;28;20075;-87
2022/08/11 18:03:54;;;;;;;6.85;1.92;;;;;;;;;;5060395;28;20029;-89
2022/08/11 18:06:20;;;;;;;6.82;2.22;;;;;;;;;;5060611;28;20053;-88
